XML Sitemap

This is a XML Sitemap which is supposed to be processed by search engines which follow the XML Sitemap standard like Ask.com, Bing, Google and Yahoo.
It was generated using the WordPress content management system and the Google Sitemap Generator Plugin by Arne Brachhold.
You can find more information about XML sitemaps on sitemaps.org and Google's list of sitemap programs.

URLPriorityChange frequencyLast modified (GMT)
http://sonyaddict.com/2021/09/30/ttartisan-32mm-f-2-8-autofocus/20%Monthly2021-09-30 09:33
http://sonyaddict.com/2021/09/30/tamron-28-75mm-f-2-8-di-iii-vxd-g2-official-announced-and-preorders/20%Monthly2021-09-30 04:21
http://sonyaddict.com/2021/09/30/tamron-35-150mm-f-2-2-8-di-iii-vxd-official-announced-and-preorders/20%Monthly2021-09-30 04:17
http://sonyaddict.com/2021/09/29/viltrox-af-13mm-f-1-4-coming-in-november/20%Monthly2021-09-29 18:57
http://sonyaddict.com/2021/09/28/full-frame-sirui-50mm-t2-9-anamorphic-coming-soon/20%Monthly2021-09-28 17:53
http://sonyaddict.com/2021/09/27/dpr-sigma-150-600mm-f-5-6-3-dg-dn-os-sport/20%Monthly2021-09-27 20:23
http://sonyaddict.com/2021/09/27/first-great-joy-60mm-t2-9-anamorphic-review/20%Monthly2021-09-27 18:02
http://sonyaddict.com/2021/09/26/sigma-150mm-f-2-8-dg-dn-macro-patent-found/20%Monthly2021-09-26 17:29
http://sonyaddict.com/2021/09/25/new-great-joy-60mm-t2-9-anamorphic-announced-and-launch-special/20%Monthly2021-09-25 19:42
http://sonyaddict.com/2021/09/24/sigma-18-50mm-f-2-8-dc-dn-contemporary-details/20%Monthly2021-09-24 18:42
http://sonyaddict.com/2021/09/24/new-ttartisan-40mm-f-2-8-macro/20%Monthly2021-09-24 14:13
http://sonyaddict.com/2021/09/23/sigma-18-50mm-f-2-8-dc-dn-contemporary-coming-next/20%Monthly2021-09-23 05:20
http://sonyaddict.com/2021/09/22/tamron-35-150mm-f-2-2-8-di-iii-vxd-variable-aperture-explained/20%Monthly2021-11-12 18:21
http://sonyaddict.com/2021/09/21/new-prograde-digital-160gb-cfexpress-type-a/20%Monthly2021-09-21 15:50
http://sonyaddict.com/2021/09/20/luminar-neo-some-new-features-revealed/20%Monthly2021-09-20 17:28
http://sonyaddict.com/2021/09/20/ttartisan-40mm-f-2-8-macro-teaser/20%Monthly2021-09-20 15:50
http://sonyaddict.com/2021/09/18/new-techart-pro-af-adapter-v2-and-megadap-sony-e-mount-to-nikon-z-mount-adapter/20%Monthly2021-09-19 01:09
http://sonyaddict.com/2021/09/17/7artisans-25mm-f-0-95-photos-and-more/20%Monthly2021-09-17 18:10
http://sonyaddict.com/2021/09/16/atomos-ninja-v-atomos-10-67-1-released/20%Monthly2021-09-16 20:22
http://sonyaddict.com/2021/09/15/tamron-28-75mm-f-2-8-di-iii-rxd-g2-and-tamron-35-150mm-f-2-2-8-di-iii-vxd-english-catalogs-released/20%Monthly2021-11-12 18:21
http://sonyaddict.com/2021/09/15/optical-limits-samyang-85mm-f-1-4-af-a-true-value-king/20%Monthly2021-09-15 16:21
http://sonyaddict.com/2021/09/14/optical-limits-tamron-20mm-and-24mm-reviewed/20%Monthly2021-09-14 19:57
http://sonyaddict.com/2021/09/13/deal-zone-lexar-high-speed-uhs-ii-card-savings/20%Monthly2021-09-13 21:14
http://sonyaddict.com/2021/09/13/visual-story-2-0-released/20%Monthly2021-09-13 19:08
http://sonyaddict.com/2021/09/13/laowa-argus-33mm-f-0-95-cf-apo-reviewed/20%Monthly2021-09-13 18:28
http://sonyaddict.com/2021/09/12/sony-savings-sunday-54/20%Monthly2021-09-12 18:36
http://sonyaddict.com/2021/09/11/sigma-turns-60-happy-birthday-sigma/20%Monthly2021-09-11 15:22
http://sonyaddict.com/2021/09/10/laowa-argus-35mm-f-0-95-ff/20%Monthly2021-09-10 14:44
http://sonyaddict.com/2021/09/09/new-luminar-neo/20%Monthly2021-09-09 16:41
http://sonyaddict.com/2021/09/09/profoto-b10x-250w-and-b10x-plus-500w-announced/20%Monthly2021-09-09 13:26
http://sonyaddict.com/2021/09/09/sigma-90mm-f2-8-dg-dn-contemporary-and-24mm-f2-dg-dn-contemporary-announced/20%Monthly2021-09-09 13:33
http://sonyaddict.com/2021/09/08/on1-2022-announced/20%Monthly2021-09-08 18:25
http://sonyaddict.com/2021/09/08/sony-electronics-pulled-out-of-nab-2021-will-stream-presentation-instead-due-to-covid-19/20%Monthly2021-09-08 18:09
http://sonyaddict.com/2021/09/08/new-zhong-yi-optics-mitakon-135mm-f-2-5-apo/20%Monthly2021-09-08 14:41
http://sonyaddict.com/2021/09/07/sigma-90mm-f2-8-dg-dn-contemporary-and-24mm-f2-dg-dn-contemporary-images-leaked/20%Monthly2021-09-07 17:11
http://sonyaddict.com/2021/09/07/irix-30mm-t1-5-cine-announced/20%Monthly2021-09-07 15:57
http://sonyaddict.com/2021/09/06/new-tiltaing-sony-fx3-lightweight-kit/20%Monthly2021-09-06 19:31
http://sonyaddict.com/2021/09/05/sony-savings-sunday-53/20%Monthly2021-09-05 16:15
http://sonyaddict.com/2021/09/04/cl-laowa-25mm-f-2-8-2-5-5x-ultra-macro-review/20%Monthly2021-09-04 17:50
http://sonyaddict.com/2021/09/03/meke-24mm-t2-1-ff-prime/20%Monthly2021-09-03 17:13
http://sonyaddict.com/2021/09/02/additional-sigma-90mm-f2-8-dg-dn-contemporary-and-24mm-f2-dg-dn-contemporary-details-and-price/20%Monthly2021-09-02 21:44
http://sonyaddict.com/2021/09/02/sigma-event-coming-september-9th/20%Monthly2021-09-02 17:55
http://sonyaddict.com/2021/09/01/irix-teasing-new-t1-5-cine-lenses/20%Monthly2021-09-01 21:38